createdAt,value
2022-12-31T00:00:12.849Z,7.00
2022-12-31T00:02:47.035Z,7.00
2022-12-31T00:05:21.228Z,6.90
2022-12-31T00:07:57.302Z,7.00
2022-12-31T00:10:31.492Z,7.00
2022-12-31T00:13:05.786Z,6.90
2022-12-31T00:15:40.168Z,7.00
2022-12-31T00:18:14.884Z,6.90
2022-12-31T00:20:48.926Z,7.00
2022-12-31T00:23:24.596Z,7.00
2022-12-31T00:25:58.719Z,7.00
2022-12-31T00:28:32.728Z,7.00
2022-12-31T00:31:11.975Z,7.00
2022-12-31T00:33:47.028Z,7.00
2022-12-31T00:36:23.147Z,7.00
2022-12-31T00:39:00.065Z,7.00
2022-12-31T00:41:34.523Z,7.00
2022-12-31T00:44:08.315Z,7.00
2022-12-31T00:49:13.881Z,7.10
2022-12-31T00:51:50.027Z,7.10
2022-12-31T00:54:27.534Z,7.10
2022-12-31T00:57:01.260Z,7.10
2022-12-31T00:59:34.971Z,7.20
2022-12-31T01:02:08.918Z,7.20
2022-12-31T01:04:43.114Z,7.30
2022-12-31T01:07:17.242Z,7.30
2022-12-31T01:09:55.217Z,7.30
2022-12-31T01:12:30.972Z,7.30
2022-12-31T01:15:05.131Z,7.20
2022-12-31T01:17:39.958Z,7.20
2022-12-31T01:20:17.294Z,7.20
2022-12-31T01:22:55.322Z,7.20
2022-12-31T01:25:30.939Z,7.20
2022-12-31T01:28:04.990Z,7.20
2022-12-31T01:30:42.026Z,7.30
2022-12-31T01:33:16.242Z,7.20
2022-12-31T01:35:50.652Z,7.20
2022-12-31T01:38:24.803Z,7.30
2022-12-31T01:41:00.790Z,7.30
2022-12-31T01:43:49.743Z,7.20
2022-12-31T01:46:29.725Z,7.10
2022-12-31T01:49:08.865Z,7.20
2022-12-31T01:51:46.309Z,7.20
2022-12-31T01:54:25.188Z,7.20
2022-12-31T01:57:01.774Z,7.10
2022-12-31T01:59:36.890Z,7.20
2022-12-31T02:02:11.194Z,7.30
2022-12-31T02:04:45.379Z,7.40
2022-12-31T02:07:19.225Z,7.60
2022-12-31T02:09:53.373Z,7.60
2022-12-31T02:12:29.503Z,7.60
2022-12-31T02:15:03.526Z,7.70
2022-12-31T02:17:44.787Z,7.60
2022-12-31T02:20:53.915Z,7.40
2022-12-31T02:23:46.386Z,7.50
2022-12-31T02:26:40.469Z,7.60
2022-12-31T02:30:02.857Z,7.70
2022-12-31T02:32:45.307Z,7.70
2022-12-31T02:35:26.104Z,7.80
2022-12-31T02:38:05.674Z,8.00
2022-12-31T02:40:41.628Z,8.20
2022-12-31T02:43:15.667Z,8.30
2022-12-31T02:45:52.247Z,8.40
2022-12-31T02:48:43.922Z,8.50
2022-12-31T02:51:28.692Z,8.50
2022-12-31T02:54:21.828Z,8.70
2022-12-31T02:57:04.100Z,8.90
2022-12-31T02:59:57.508Z,9.00
2022-12-31T03:02:36.638Z,9.10
2022-12-31T03:05:13.533Z,9.00
2022-12-31T03:07:48.240Z,9.10
2022-12-31T03:10:22.353Z,9.00
2022-12-31T03:12:55.146Z,9.00
2022-12-31T03:15:30.426Z,9.00
2022-12-31T03:18:06.482Z,8.90
2022-12-31T03:20:59.705Z,9.00
2022-12-31T03:23:35.948Z,9.00
2022-12-31T03:26:12.062Z,9.10
2022-12-31T03:28:49.347Z,9.10
2022-12-31T03:31:23.297Z,9.00
2022-12-31T03:33:57.411Z,9.20
2022-12-31T03:36:33.202Z,9.30
2022-12-31T03:39:07.393Z,9.50
2022-12-31T03:41:41.406Z,9.30
2022-12-31T03:44:15.411Z,9.10
2022-12-31T03:46:49.174Z,9.20
2022-12-31T03:49:23.014Z,9.00
2022-12-31T03:51:58.759Z,8.80
2022-12-31T03:54:32.721Z,8.90
2022-12-31T03:57:06.796Z,8.70
2022-12-31T03:59:43.047Z,8.80
2022-12-31T04:02:24.717Z,8.80
2022-12-31T04:05:04.452Z,9.00
2022-12-31T04:07:43.047Z,9.20
2022-12-31T04:10:21.956Z,9.40
2022-12-31T04:12:58.335Z,9.60
2022-12-31T04:15:34.652Z,9.60
2022-12-31T04:18:11.187Z,9.60
2022-12-31T04:20:47.373Z,9.60
2022-12-31T04:23:26.726Z,9.50
2022-12-31T04:26:03.425Z,9.70
2022-12-31T04:28:40.076Z,9.80
2022-12-31T04:31:17.256Z,9.80
2022-12-31T04:33:53.460Z,9.60
2022-12-31T04:36:29.981Z,9.60
2022-12-31T04:39:08.624Z,9.60
2022-12-31T04:41:45.325Z,9.40
2022-12-31T04:44:24.274Z,9.30
2022-12-31T04:47:00.324Z,9.40
2022-12-31T04:49:37.838Z,9.40
2022-12-31T04:52:14.414Z,9.20
2022-12-31T04:54:53.194Z,9.30
2022-12-31T04:57:29.611Z,9.20
2022-12-31T05:00:06.347Z,9.10
2022-12-31T05:02:42.942Z,9.20
2022-12-31T05:05:17.575Z,9.00
2022-12-31T05:07:51.866Z,9.00
2022-12-31T05:10:27.867Z,9.00
2022-12-31T05:13:01.821Z,9.10
2022-12-31T05:15:35.662Z,9.10
2022-12-31T05:18:11.011Z,9.20
2022-12-31T05:20:45.225Z,9.30
2022-12-31T05:23:19.891Z,9.20
2022-12-31T05:25:55.709Z,9.30
2022-12-31T05:28:30.280Z,9.40
2022-12-31T05:31:04.529Z,9.30
2022-12-31T05:33:38.573Z,9.20
2022-12-31T05:36:12.939Z,9.00
2022-12-31T05:38:47.102Z,9.20
2022-12-31T05:41:23.215Z,9.30
2022-12-31T05:43:57.581Z,9.30
2022-12-31T05:46:32.206Z,9.20
2022-12-31T05:49:06.482Z,9.10
2022-12-31T05:51:41.286Z,9.20
2022-12-31T05:54:15.970Z,9.00
2022-12-31T05:56:51.965Z,8.90
2022-12-31T05:59:26.463Z,8.90
2022-12-31T06:02:00.837Z,8.90
2022-12-31T06:04:35.846Z,8.90
2022-12-31T06:07:10.161Z,8.90
2022-12-31T06:09:45.227Z,9.00
2022-12-31T06:12:22.125Z,9.00
2022-12-31T06:14:56.740Z,9.10
2022-12-31T06:17:34.040Z,9.10
2022-12-31T06:20:13.070Z,9.00
2022-12-31T06:22:48.295Z,9.10
2022-12-31T06:25:24.995Z,9.00
2022-12-31T06:28:02.141Z,9.20
2022-12-31T06:30:36.861Z,9.20
2022-12-31T06:33:13.107Z,9.30
2022-12-31T06:35:47.925Z,9.30
2022-12-31T06:38:23.336Z,9.30
2022-12-31T06:40:58.219Z,9.20
2022-12-31T06:43:35.187Z,9.30
2022-12-31T06:46:13.605Z,9.20
2022-12-31T06:48:52.184Z,9.20
2022-12-31T06:51:27.670Z,9.10
2022-12-31T06:54:02.980Z,9.20
2022-12-31T06:56:38.842Z,9.20
2022-12-31T06:59:30.865Z,9.20
2022-12-31T07:02:31.981Z,9.20
2022-12-31T07:05:25.359Z,9.20
2022-12-31T07:08:10.871Z,9.20
2022-12-31T07:10:55.254Z,9.20
2022-12-31T07:13:56.096Z,9.20
2022-12-31T07:16:49.552Z,9.20
2022-12-31T07:19:34.302Z,9.20
2022-12-31T07:22:10.536Z,9.30
2022-12-31T07:24:46.745Z,9.30
2022-12-31T07:27:40.995Z,9.20
2022-12-31T07:30:19.443Z,9.20
2022-12-31T07:33:20.678Z,9.20
2022-12-31T07:36:06.688Z,9.30
2022-12-31T07:38:53.768Z,9.30
2022-12-31T07:41:44.488Z,9.30
2022-12-31T07:44:38.704Z,9.30
2022-12-31T07:47:24.073Z,9.30
2022-12-31T07:50:03.114Z,9.20
2022-12-31T07:52:39.720Z,9.20
2022-12-31T07:55:15.903Z,9.20
2022-12-31T07:58:00.394Z,9.20
2022-12-31T08:00:36.750Z,9.20
2022-12-31T08:03:30.917Z,9.30
2022-12-31T08:06:16.963Z,9.20
2022-12-31T08:09:02.012Z,9.30
2022-12-31T08:11:46.290Z,9.30
2022-12-31T08:14:23.411Z,9.40
2022-12-31T08:16:59.454Z,9.30
2022-12-31T08:19:36.822Z,9.40
2022-12-31T08:22:38.018Z,9.40
2022-12-31T08:25:23.474Z,9.40
2022-12-31T08:28:07.869Z,9.50
2022-12-31T08:30:56.708Z,9.50
2022-12-31T08:33:37.153Z,9.50
2022-12-31T08:36:22.976Z,9.60
2022-12-31T08:39:06.509Z,9.60
2022-12-31T08:41:48.303Z,9.60
2022-12-31T08:44:37.443Z,9.70
2022-12-31T08:47:27.862Z,9.60
2022-12-31T08:50:04.052Z,9.60
2022-12-31T08:52:40.185Z,9.50
2022-12-31T08:55:20.406Z,9.50
2022-12-31T08:58:10.998Z,9.40
2022-12-31T09:00:47.938Z,9.40
2022-12-31T09:03:34.810Z,9.50
2022-12-31T09:06:17.059Z,9.50
2022-12-31T09:08:58.702Z,9.60
2022-12-31T09:11:47.756Z,9.40
2022-12-31T09:14:38.663Z,9.40
2022-12-31T09:17:30.054Z,9.40
2022-12-31T09:20:06.229Z,9.30
2022-12-31T09:22:41.981Z,9.40
2022-12-31T09:25:22.360Z,9.30
2022-12-31T09:28:19.394Z,9.30
2022-12-31T09:31:03.804Z,9.30
2022-12-31T09:33:46.448Z,9.20
2022-12-31T09:36:28.300Z,9.20
2022-12-31T09:39:10.627Z,9.20
2022-12-31T09:42:10.974Z,9.20
2022-12-31T09:45:16.275Z,9.10
2022-12-31T09:48:28.499Z,9.10
2022-12-31T09:51:25.556Z,9.20
2022-12-31T09:54:28.692Z,9.20
2022-12-31T09:57:31.969Z,9.20
2022-12-31T10:00:15.334Z,9.20
2022-12-31T10:03:19.218Z,9.10
2022-12-31T10:06:17.199Z,9.10
2022-12-31T10:09:07.375Z,9.00
2022-12-31T10:12:11.342Z,9.10
2022-12-31T10:15:00.489Z,9.00
2022-12-31T10:17:53.469Z,8.90
2022-12-31T10:20:45.606Z,8.90
2022-12-31T10:23:57.809Z,8.90
2022-12-31T10:26:53.208Z,8.90
2022-12-31T10:29:36.504Z,8.90
2022-12-31T10:32:29.411Z,8.80
2022-12-31T10:35:24.113Z,8.90
2022-12-31T10:38:07.519Z,8.80
2022-12-31T10:41:12.812Z,8.80
2022-12-31T10:44:16.066Z,8.80
2022-12-31T10:47:18.767Z,8.80
2022-12-31T10:50:26.589Z,8.70
2022-12-31T10:53:35.083Z,8.70
2022-12-31T10:56:39.680Z,8.70
2022-12-31T10:59:55.717Z,8.60
2022-12-31T11:02:59.475Z,8.60
2022-12-31T11:06:11.752Z,8.60
2022-12-31T11:09:34.216Z,8.60
2022-12-31T11:12:24.959Z,8.50
2022-12-31T11:15:18.167Z,8.50
2022-12-31T11:18:03.994Z,8.60
2022-12-31T11:20:53.246Z,8.50
2022-12-31T11:23:40.907Z,8.50
2022-12-31T11:26:28.976Z,8.40
2022-12-31T11:29:23.827Z,8.40
2022-12-31T11:32:19.944Z,8.30
2022-12-31T11:35:21.562Z,8.30
2022-12-31T11:37:59.794Z,8.20
2022-12-31T11:40:50.066Z,8.30
2022-12-31T11:43:42.587Z,8.20
2022-12-31T11:46:58.454Z,8.20
2022-12-31T11:49:51.655Z,8.30
2022-12-31T11:52:59.477Z,8.10
2022-12-31T11:55:59.258Z,8.10
2022-12-31T11:58:39.268Z,8.10
2022-12-31T12:01:22.154Z,8.00
2022-12-31T12:03:58.536Z,8.00
2022-12-31T12:06:36.256Z,8.00
2022-12-31T12:09:20.642Z,8.00
2022-12-31T12:12:06.906Z,8.00
2022-12-31T12:14:47.320Z,8.10
2022-12-31T12:17:34.302Z,8.00
2022-12-31T12:20:20.966Z,7.90
2022-12-31T12:23:01.498Z,7.90
2022-12-31T12:25:47.915Z,7.90
2022-12-31T12:28:31.953Z,7.80
2022-12-31T12:31:11.730Z,7.80
2022-12-31T12:33:51.159Z,7.80
2022-12-31T12:36:28.798Z,7.80
2022-12-31T12:39:10.500Z,7.90
2022-12-31T12:41:47.679Z,7.80
2022-12-31T12:44:24.105Z,7.80
2022-12-31T12:47:03.875Z,7.80
2022-12-31T12:49:46.086Z,7.80
2022-12-31T12:52:47.028Z,7.90
2022-12-31T12:55:30.955Z,7.90
2022-12-31T12:58:20.187Z,7.90
2022-12-31T13:01:03.655Z,7.80
2022-12-31T13:07:23.928Z,7.70
2022-12-31T13:10:36.534Z,7.60
2022-12-31T13:13:33.182Z,7.60
2022-12-31T13:16:15.543Z,7.60
2022-12-31T13:19:00.363Z,7.60
2022-12-31T13:21:48.199Z,7.60
2022-12-31T13:24:41.351Z,7.70
2022-12-31T13:27:23.691Z,7.70
2022-12-31T13:30:03.365Z,7.70
2022-12-31T13:32:46.062Z,7.70
2022-12-31T13:35:32.506Z,7.60
2022-12-31T13:38:19.903Z,7.60
2022-12-31T13:41:03.498Z,7.50
2022-12-31T13:43:51.160Z,7.50
2022-12-31T13:46:35.317Z,7.50
2022-12-31T13:49:19.247Z,7.50
2022-12-31T13:51:56.864Z,7.50
2022-12-31T13:54:41.666Z,7.40
2022-12-31T13:57:44.076Z,7.40
2022-12-31T14:00:49.007Z,7.30
2022-12-31T14:03:35.544Z,7.20
2022-12-31T14:06:17.211Z,7.20
2022-12-31T14:08:54.113Z,7.20
2022-12-31T14:11:51.344Z,7.20
2022-12-31T14:14:37.462Z,7.20
2022-12-31T14:17:22.361Z,7.20
2022-12-31T14:20:12.105Z,7.20
2022-12-31T14:22:55.822Z,7.10
2022-12-31T14:25:39.985Z,7.10
2022-12-31T14:28:24.863Z,7.00
2022-12-31T14:31:08.060Z,7.00
2022-12-31T14:33:54.725Z,7.10
2022-12-31T14:36:42.981Z,7.10
2022-12-31T14:39:34.694Z,7.10
2022-12-31T14:42:26.078Z,7.10
2022-12-31T14:45:20.442Z,7.00
2022-12-31T14:48:01.086Z,7.00
2022-12-31T14:50:39.736Z,7.00
2022-12-31T14:53:25.059Z,7.00
2022-12-31T14:56:09.795Z,6.90
2022-12-31T14:58:46.795Z,7.00
2022-12-31T15:01:28.857Z,7.00
2022-12-31T15:04:05.249Z,7.10
2022-12-31T15:07:03.512Z,7.10
2022-12-31T15:10:05.280Z,7.10
2022-12-31T15:13:05.091Z,7.10
2022-12-31T15:16:03.220Z,7.00
2022-12-31T15:18:49.545Z,7.00
2022-12-31T15:22:03.521Z,7.10
2022-12-31T15:24:40.315Z,7.00
2022-12-31T15:27:34.749Z,7.10
2022-12-31T15:30:28.510Z,7.10
2022-12-31T15:33:10.195Z,7.10
2022-12-31T15:35:56.811Z,7.10
2022-12-31T15:38:42.185Z,7.00
2022-12-31T15:41:32.237Z,7.00
2022-12-31T15:44:17.141Z,7.00
2022-12-31T15:46:58.165Z,7.10
2022-12-31T15:49:44.482Z,7.20
2022-12-31T15:52:39.394Z,7.10
2022-12-31T15:55:22.467Z,7.10
2022-12-31T15:57:58.225Z,7.10
2022-12-31T16:00:48.102Z,7.10
2022-12-31T16:03:29.959Z,7.20
2022-12-31T16:06:06.828Z,7.20
2022-12-31T16:08:44.853Z,7.20
2022-12-31T16:11:24.260Z,7.20
2022-12-31T16:14:00.442Z,7.00
2022-12-31T16:16:38.656Z,7.20
2022-12-31T16:19:36.587Z,7.30
2022-12-31T16:22:18.298Z,7.20
2022-12-31T16:25:29.692Z,7.30
2022-12-31T16:27:59.615Z,7.20
2022-12-31T16:30:35.302Z,7.30
2022-12-31T16:33:10.918Z,7.20
2022-12-31T16:36:04.156Z,7.30
2022-12-31T16:38:40.125Z,7.30
2022-12-31T16:41:22.601Z,7.30
2022-12-31T16:43:56.809Z,7.20
2022-12-31T16:46:42.649Z,7.10
2022-12-31T16:49:25.819Z,7.20
2022-12-31T16:52:08.375Z,7.20
2022-12-31T16:54:43.683Z,7.10
2022-12-31T16:57:30.788Z,7.20
2022-12-31T17:00:10.365Z,7.30
2022-12-31T17:02:49.614Z,7.10
2022-12-31T17:05:25.617Z,7.20
2022-12-31T17:07:59.958Z,7.10
2022-12-31T17:10:40.526Z,7.20
2022-12-31T17:13:33.487Z,7.30
2022-12-31T17:16:07.880Z,7.40
2022-12-31T17:18:49.513Z,7.30
2022-12-31T17:21:30.589Z,7.30
2022-12-31T17:24:09.135Z,7.30
2022-12-31T17:26:44.449Z,7.30
2022-12-31T17:29:28.509Z,7.30
2022-12-31T17:32:08.919Z,7.20
2022-12-31T17:34:51.618Z,7.20
2022-12-31T17:37:29.506Z,7.20
2022-12-31T17:40:40.974Z,7.30
2022-12-31T17:43:01.597Z,7.30
2022-12-31T17:45:42.881Z,7.20
2022-12-31T17:48:22.684Z,7.30
2022-12-31T17:51:02.966Z,7.30
2022-12-31T17:53:37.971Z,7.30
2022-12-31T17:56:20.114Z,7.30
2022-12-31T17:58:57.703Z,7.30
2022-12-31T18:01:36.855Z,7.20
2022-12-31T18:04:16.659Z,7.40
2022-12-31T18:06:50.661Z,7.40
2022-12-31T18:09:27.617Z,7.40
2022-12-31T18:12:04.557Z,7.50
2022-12-31T18:14:39.098Z,7.50
2022-12-31T18:17:19.057Z,7.40
2022-12-31T18:20:04.828Z,7.40
2022-12-31T18:22:43.200Z,7.50
2022-12-31T18:25:22.557Z,7.50
2022-12-31T18:27:56.852Z,7.50
2022-12-31T18:30:30.846Z,7.60
2022-12-31T18:33:10.645Z,7.60
2022-12-31T18:36:08.289Z,7.60
2022-12-31T18:38:43.442Z,7.70
2022-12-31T18:41:24.799Z,7.70
2022-12-31T18:44:02.712Z,7.60
2022-12-31T18:46:37.094Z,7.70
2022-12-31T18:49:14.169Z,7.60
2022-12-31T18:51:48.271Z,7.60
2022-12-31T18:54:22.256Z,7.70
2022-12-31T18:56:57.296Z,7.50
2022-12-31T18:59:31.593Z,7.60
2022-12-31T19:02:05.591Z,7.70
2022-12-31T19:04:41.424Z,7.70
2022-12-31T19:07:15.676Z,7.70
2022-12-31T19:09:54.639Z,7.80
2022-12-31T19:12:30.464Z,7.80
2022-12-31T19:15:04.510Z,7.70
2022-12-31T19:17:38.716Z,7.70
2022-12-31T19:20:15.081Z,7.70
2022-12-31T19:22:48.857Z,7.70
2022-12-31T19:25:27.955Z,7.60
2022-12-31T19:28:01.913Z,7.70
2022-12-31T19:30:38.011Z,7.70
2022-12-31T19:33:11.912Z,7.70
2022-12-31T19:35:48.065Z,7.80
2022-12-31T19:38:23.900Z,7.60
2022-12-31T19:40:58.825Z,7.60
2022-12-31T19:43:33.017Z,7.70
2022-12-31T19:46:11.983Z,7.70
2022-12-31T19:48:46.228Z,7.70
2022-12-31T19:51:24.950Z,7.70
2022-12-31T19:53:59.025Z,7.80
2022-12-31T19:56:33.326Z,7.80
2022-12-31T19:59:09.796Z,7.80
2022-12-31T20:01:44.017Z,7.70
2022-12-31T20:04:18.143Z,7.50
2022-12-31T20:06:54.057Z,7.50
2022-12-31T20:09:28.015Z,7.50
2022-12-31T20:12:01.975Z,7.60
2022-12-31T20:14:35.993Z,7.70
2022-12-31T20:17:10.282Z,7.70
2022-12-31T20:19:44.189Z,7.70
2022-12-31T20:22:19.850Z,7.70
2022-12-31T20:24:53.553Z,7.80
2022-12-31T20:27:27.566Z,7.60
2022-12-31T20:30:01.440Z,7.60
2022-12-31T20:32:35.371Z,7.60
2022-12-31T20:35:09.579Z,7.70
2022-12-31T20:37:45.446Z,7.70
2022-12-31T20:40:19.580Z,7.80
2022-12-31T20:42:54.140Z,7.80
2022-12-31T20:45:28.560Z,7.70
2022-12-31T20:48:02.487Z,7.70
2022-12-31T20:50:36.659Z,7.70
2022-12-31T20:53:12.614Z,7.70
2022-12-31T20:55:46.764Z,7.70
2022-12-31T20:58:20.953Z,7.70
2022-12-31T21:00:55.775Z,7.80
2022-12-31T21:06:24.019Z,7.60
2022-12-31T21:09:00.491Z,7.60
2022-12-31T21:11:50.750Z,7.70
2022-12-31T21:14:24.833Z,7.70
2022-12-31T21:16:58.973Z,7.70
2022-12-31T21:19:32.816Z,7.80
2022-12-31T21:22:06.871Z,7.70
2022-12-31T21:24:42.948Z,7.70
2022-12-31T21:27:17.067Z,7.80
2022-12-31T21:30:17.494Z,7.70
2022-12-31T21:32:44.909Z,7.70
2022-12-31T21:38:12.985Z,7.60
2022-12-31T21:40:48.967Z,7.70
2022-12-31T21:43:23.170Z,7.70
2022-12-31T21:46:06.277Z,7.70
2022-12-31T21:48:40.499Z,7.80
2022-12-31T21:51:16.531Z,7.80
2022-12-31T21:53:50.331Z,7.80
2022-12-31T21:56:25.554Z,7.80
2022-12-31T21:59:17.372Z,7.80
2022-12-31T22:02:07.660Z,7.70
2022-12-31T22:05:01.818Z,7.70
2022-12-31T22:07:36.665Z,7.70
2022-12-31T22:10:11.138Z,7.70
2022-12-31T22:12:46.794Z,7.80
2022-12-31T22:15:20.902Z,7.80
2022-12-31T22:17:56.018Z,7.80
2022-12-31T22:20:30.191Z,7.80
2022-12-31T22:23:04.200Z,7.90
2022-12-31T22:25:39.526Z,7.80
2022-12-31T22:31:09.483Z,7.80
2022-12-31T22:33:43.291Z,7.80
2022-12-31T22:36:18.695Z,7.90
2022-12-31T22:38:53.450Z,7.90
2022-12-31T22:41:28.530Z,7.90
2022-12-31T22:44:06.113Z,7.80
2022-12-31T22:46:40.985Z,7.80
2022-12-31T22:49:15.940Z,7.70
2022-12-31T22:51:56.617Z,7.80
2022-12-31T22:54:32.978Z,7.80
2022-12-31T22:57:07.175Z,7.90
2022-12-31T22:59:42.868Z,8.00
2022-12-31T23:02:18.042Z,8.00
2022-12-31T23:04:52.326Z,7.90
2022-12-31T23:07:27.101Z,7.90
2022-12-31T23:10:16.896Z,8.00
2022-12-31T23:12:50.851Z,7.90
2022-12-31T23:15:42.389Z,8.00
2022-12-31T23:18:32.416Z,8.00
2022-12-31T23:21:22.810Z,7.90
2022-12-31T23:23:59.016Z,8.00
2022-12-31T23:26:33.425Z,8.00
2022-12-31T23:29:09.257Z,8.00
2022-12-31T23:31:44.842Z,8.00
2022-12-31T23:34:19.418Z,8.10
2022-12-31T23:36:53.589Z,8.10
2022-12-31T23:39:28.665Z,8.10
2022-12-31T23:42:04.107Z,8.00
2022-12-31T23:44:38.442Z,8.10
2022-12-31T23:47:14.586Z,8.10
2022-12-31T23:49:48.722Z,8.00
2022-12-31T23:52:22.615Z,7.90
2022-12-31T23:54:56.513Z,7.90
2022-12-31T23:57:30.779Z,7.90
